createdAt,value
2019-05-01T00:02:15.113Z,10.46
2019-05-01T00:04:57.900Z,10.44
2019-05-01T00:07:33.987Z,10.46
2019-05-01T00:10:07.762Z,10.46
2019-05-01T00:12:39.897Z,10.40
2019-05-01T00:15:13.825Z,10.44
2019-05-01T00:17:49.801Z,10.43
2019-05-01T00:20:22.972Z,10.39
2019-05-01T00:22:55.113Z,10.38
2019-05-01T00:25:26.913Z,10.37
2019-05-01T00:27:58.668Z,10.33
2019-05-01T00:30:31.209Z,10.38
2019-05-01T00:33:03.021Z,10.37
2019-05-01T00:35:36.576Z,10.45
2019-05-01T00:38:08.417Z,10.46
2019-05-01T00:40:40.051Z,10.39
2019-05-01T00:43:11.913Z,10.43
2019-05-01T00:45:44.225Z,10.41
2019-05-01T00:48:18.001Z,10.41
2019-05-01T00:50:49.605Z,10.43
2019-05-01T00:53:21.379Z,10.38
2019-05-01T00:55:56.195Z,10.36
2019-05-01T00:58:32.432Z,10.34
2019-05-01T01:01:08.585Z,10.37
2019-05-01T01:03:41.038Z,10.38
2019-05-01T01:06:12.814Z,10.37
2019-05-01T01:08:44.710Z,10.38
2019-05-01T01:11:16.288Z,10.37
2019-05-01T01:13:48.077Z,10.36
2019-05-01T01:16:21.018Z,10.54
2019-05-01T01:18:52.636Z,10.56
2019-05-01T01:21:24.348Z,10.56
2019-05-01T01:23:57.675Z,10.63
2019-05-01T01:26:29.755Z,10.59
2019-05-01T01:29:01.486Z,10.69
2019-05-01T01:31:33.163Z,10.68
2019-05-01T01:34:04.834Z,10.66
2019-05-01T01:36:36.524Z,10.65
2019-05-01T01:39:08.185Z,10.61
2019-05-01T01:41:41.484Z,10.73
2019-05-01T01:44:14.871Z,10.70
2019-05-01T01:46:57.698Z,10.66
2019-05-01T01:49:30.167Z,10.74
2019-05-01T01:52:02.042Z,10.67
2019-05-01T01:54:35.330Z,10.74
2019-05-01T01:57:09.803Z,10.74
2019-05-01T01:59:41.810Z,10.64
2019-05-01T02:02:15.135Z,10.73
2019-05-01T02:04:49.356Z,10.73
2019-05-01T02:07:20.944Z,10.57
2019-05-01T02:09:52.747Z,10.62
2019-05-01T02:12:24.595Z,10.69
2019-05-01T02:14:56.290Z,10.61
2019-05-01T02:17:28.923Z,10.71
2019-05-01T02:20:00.605Z,10.74
2019-05-01T02:22:32.376Z,10.74
2019-05-01T02:25:05.305Z,10.80
2019-05-01T02:27:43.990Z,10.82
2019-05-01T02:30:18.371Z,10.85
2019-05-01T02:32:52.306Z,10.83
2019-05-01T02:35:25.626Z,10.85
2019-05-01T02:37:58.269Z,10.90
2019-05-01T02:40:49.843Z,10.86
2019-05-01T02:43:25.966Z,10.92
2019-05-01T02:46:00.381Z,10.96
2019-05-01T02:48:35.308Z,11.03
2019-05-01T02:51:09.020Z,11.01
2019-05-01T02:53:43.693Z,11.10
2019-05-01T02:56:18.739Z,11.12
2019-05-01T02:58:53.432Z,11.17
2019-05-01T03:01:26.009Z,11.21
2019-05-01T03:04:00.942Z,11.24
2019-05-01T03:06:34.864Z,11.30
2019-05-01T03:09:08.338Z,11.19
2019-05-01T03:11:43.103Z,11.29
2019-05-01T03:14:17.663Z,11.40
2019-05-01T03:16:52.134Z,11.41
2019-05-01T03:19:36.565Z,11.45
2019-05-01T03:22:11.265Z,11.48
2019-05-01T03:24:45.957Z,11.46
2019-05-01T03:27:17.643Z,11.51
2019-05-01T03:29:52.661Z,11.50
2019-05-01T03:32:25.393Z,11.51
2019-05-01T03:34:58.086Z,11.48
2019-05-01T03:37:30.104Z,11.47
2019-05-01T03:40:01.993Z,11.51
2019-05-01T03:42:34.194Z,11.49
2019-05-01T03:45:07.383Z,11.53
2019-05-01T03:47:39.639Z,11.57
2019-05-01T03:50:11.475Z,11.57
2019-05-01T03:52:43.303Z,11.54
2019-05-01T03:55:15.213Z,11.59
2019-05-01T03:57:48.481Z,11.67
2019-05-01T04:00:23.300Z,11.67
2019-05-01T04:03:14.233Z,11.73
2019-05-01T04:05:47.083Z,11.75
2019-05-01T04:08:20.363Z,11.79
2019-05-01T04:10:54.989Z,11.72
2019-05-01T04:13:26.787Z,11.78
2019-05-01T04:15:59.142Z,11.81
2019-05-01T04:18:30.909Z,11.74
2019-05-01T04:21:03.607Z,11.76
2019-05-01T04:23:39.586Z,11.77
2019-05-01T04:26:11.839Z,11.76
2019-05-01T04:28:48.157Z,11.77
2019-05-01T04:31:30.766Z,11.76
2019-05-01T04:34:13.712Z,11.80
2019-05-01T04:36:47.131Z,11.77
2019-05-01T04:39:18.998Z,11.81
2019-05-01T04:41:51.409Z,11.89
2019-05-01T04:44:23.200Z,11.89
2019-05-01T04:46:55.004Z,11.92
2019-05-01T04:49:28.011Z,11.91
2019-05-01T04:52:01.036Z,11.89
2019-05-01T04:54:32.835Z,11.92
2019-05-01T04:57:04.995Z,11.94
2019-05-01T04:59:36.927Z,11.94
2019-05-01T05:02:15.113Z,12.09
2019-05-01T05:04:46.979Z,12.18
2019-05-01T05:07:19.126Z,12.22
2019-05-01T05:09:51.632Z,12.22
2019-05-01T05:12:28.379Z,12.29
2019-05-01T05:15:18.625Z,12.45
2019-05-01T05:17:52.302Z,12.57
2019-05-01T05:20:28.120Z,12.68
2019-05-01T05:23:00.011Z,12.70
2019-05-01T05:25:32.202Z,12.73
2019-05-01T05:28:06.895Z,12.74
2019-05-01T05:30:40.092Z,12.75
2019-05-01T05:33:18.535Z,12.79
2019-05-01T05:35:51.335Z,12.77
2019-05-01T05:38:34.212Z,12.86
2019-05-01T05:41:07.305Z,12.86
2019-05-01T05:43:39.834Z,12.91
2019-05-01T05:46:13.843Z,12.90
2019-05-01T05:48:47.939Z,12.95
2019-05-01T05:51:27.494Z,13.08
2019-05-01T05:54:05.593Z,13.22
2019-05-01T05:56:55.599Z,13.42
2019-05-01T05:59:35.064Z,13.56
2019-05-01T06:02:15.863Z,13.64
2019-05-01T06:04:54.472Z,13.73
2019-05-01T06:07:29.794Z,13.68
2019-05-01T06:10:06.327Z,13.73
2019-05-01T06:12:56.635Z,13.72
2019-05-01T06:15:48.851Z,13.83
2019-05-01T06:18:27.640Z,14.01
2019-05-01T06:21:02.161Z,14.04
2019-05-01T06:23:47.715Z,14.08
2019-05-01T06:26:32.152Z,14.22
2019-05-01T06:29:04.172Z,14.28
2019-05-01T06:31:38.128Z,14.21
2019-05-01T06:34:09.966Z,14.11
2019-05-01T06:36:44.450Z,13.97
2019-05-01T06:39:18.800Z,13.94
2019-05-01T06:41:51.440Z,13.89
2019-05-01T06:44:39.123Z,13.91
2019-05-01T06:47:28.149Z,13.95
2019-05-01T06:50:07.389Z,14.05
2019-05-01T06:52:40.771Z,14.12
2019-05-01T06:55:14.735Z,14.17
2019-05-01T06:57:49.532Z,14.22
2019-05-01T07:00:22.788Z,14.29
2019-05-01T07:02:55.857Z,14.29
2019-05-01T07:05:32.353Z,14.36
2019-05-01T07:08:06.386Z,14.48
2019-05-01T07:10:43.976Z,14.60
2019-05-01T07:13:12.182Z,14.88
2019-05-01T07:15:44.558Z,15.21
2019-05-01T07:18:18.815Z,15.45
2019-05-01T07:20:53.143Z,15.59
2019-05-01T07:23:25.855Z,15.65
2019-05-01T07:25:57.535Z,15.57
2019-05-01T07:28:34.208Z,15.77
2019-05-01T07:31:05.328Z,15.97
2019-05-01T07:33:37.491Z,16.04
2019-05-01T07:36:15.150Z,15.98
2019-05-01T07:38:48.620Z,16.05
2019-05-01T07:41:23.029Z,16.35
2019-05-01T07:44:10.846Z,16.58
2019-05-01T07:46:54.310Z,16.78
2019-05-01T07:49:47.866Z,16.94
2019-05-01T07:52:18.778Z,17.13
2019-05-01T07:54:51.057Z,17.44
2019-05-01T07:57:23.719Z,17.78
2019-05-01T07:59:58.363Z,18.10
2019-05-01T08:02:31.141Z,18.19
2019-05-01T08:05:09.862Z,18.37
2019-05-01T08:07:42.571Z,18.52
2019-05-01T08:10:15.629Z,18.37
2019-05-01T08:12:48.283Z,18.30
2019-05-01T08:15:22.568Z,18.05
2019-05-01T08:17:56.997Z,17.91
2019-05-01T08:20:32.806Z,17.88
2019-05-01T08:23:07.609Z,17.97
2019-05-01T08:25:38.975Z,18.22
2019-05-01T08:28:12.237Z,18.21
2019-05-01T08:31:03.549Z,18.18
2019-05-01T08:33:49.865Z,18.17
2019-05-01T08:36:22.608Z,18.08
2019-05-01T08:38:54.367Z,18.01
2019-05-01T08:41:26.967Z,17.96
2019-05-01T08:44:07.027Z,17.89
2019-05-01T08:46:40.952Z,17.81
2019-05-01T08:49:14.214Z,17.89
2019-05-01T08:51:47.127Z,17.79
2019-05-01T08:54:19.367Z,17.76
2019-05-01T08:56:53.090Z,17.95
2019-05-01T08:59:25.812Z,18.34
2019-05-01T09:02:08.793Z,18.58
2019-05-01T09:04:33.974Z,18.65
2019-05-01T09:07:06.907Z,18.59
2019-05-01T09:09:39.699Z,18.75
2019-05-01T09:12:15.016Z,19.11
2019-05-01T09:14:47.171Z,19.21
2019-05-01T09:17:20.851Z,19.32
2019-05-01T09:19:52.909Z,19.37
2019-05-01T09:22:26.687Z,19.22
2019-05-01T09:25:00.291Z,19.02
2019-05-01T09:27:39.598Z,18.96
2019-05-01T09:30:21.784Z,18.89
2019-05-01T09:32:55.766Z,19.03
2019-05-01T09:35:28.080Z,19.08
2019-05-01T09:38:01.355Z,19.05
2019-05-01T09:40:34.485Z,19.06
2019-05-01T09:43:08.093Z,19.18
2019-05-01T09:45:39.904Z,19.25
2019-05-01T09:48:14.100Z,19.42
2019-05-01T09:50:54.586Z,19.52
2019-05-01T09:53:34.189Z,19.64
2019-05-01T09:56:13.720Z,19.97
2019-05-01T09:58:45.405Z,19.96
2019-05-01T10:01:18.644Z,19.99
2019-05-01T10:03:54.594Z,20.13
2019-05-01T10:06:26.349Z,20.42
2019-05-01T10:08:59.681Z,20.76
2019-05-01T10:11:36.011Z,21.35
2019-05-01T10:14:09.447Z,21.73
2019-05-01T10:16:43.781Z,21.73
2019-05-01T10:19:19.302Z,21.45
2019-05-01T10:21:50.858Z,21.29
2019-05-01T10:24:25.624Z,21.13
2019-05-01T10:27:02.032Z,20.97
2019-05-01T10:29:43.185Z,20.90
2019-05-01T10:32:21.670Z,20.93
2019-05-01T10:34:59.688Z,20.98
2019-05-01T10:37:35.782Z,20.92
2019-05-01T10:40:09.243Z,21.03
2019-05-01T10:42:42.464Z,21.12
2019-05-01T10:45:16.012Z,21.21
2019-05-01T10:47:52.935Z,21.13
2019-05-01T10:50:24.576Z,21.15
2019-05-01T10:52:58.715Z,21.17
2019-05-01T10:55:34.035Z,21.28
2019-05-01T10:58:07.593Z,21.21
2019-05-01T11:00:41.029Z,21.16
2019-05-01T11:03:13.996Z,21.24
2019-05-01T11:05:55.678Z,21.16
2019-05-01T11:08:23.424Z,21.15
2019-05-01T11:10:57.720Z,21.12
2019-05-01T11:13:31.346Z,21.06
2019-05-01T11:16:04.572Z,21.10
2019-05-01T11:18:36.076Z,21.30
2019-05-01T11:21:09.584Z,21.38
2019-05-01T11:23:41.129Z,21.35
2019-05-01T11:26:13.440Z,21.45
2019-05-01T11:28:50.403Z,21.57
2019-05-01T11:31:24.035Z,21.61
2019-05-01T11:33:57.371Z,21.67
2019-05-01T11:36:41.643Z,21.70
2019-05-01T11:39:35.836Z,21.68
2019-05-01T11:42:09.447Z,21.71
2019-05-01T11:44:41.508Z,21.79
2019-05-01T11:47:14.643Z,21.69
2019-05-01T11:49:47.603Z,21.79
2019-05-01T11:52:18.936Z,21.85
2019-05-01T11:54:51.535Z,21.86
2019-05-01T11:57:23.062Z,21.83
2019-05-01T11:59:57.059Z,21.80
2019-05-01T12:02:29.588Z,21.68
2019-05-01T12:05:01.105Z,21.65
2019-05-01T12:07:32.676Z,21.62
2019-05-01T12:10:08.319Z,21.65
2019-05-01T12:12:39.907Z,21.64
2019-05-01T12:15:13.284Z,21.69
2019-05-01T12:17:50.354Z,21.70
2019-05-01T12:20:23.044Z,21.70
2019-05-01T12:22:56.052Z,21.58
2019-05-01T12:25:28.940Z,21.43
2019-05-01T12:28:02.691Z,21.25
2019-05-01T12:30:35.292Z,21.13
2019-05-01T12:33:10.425Z,21.10
2019-05-01T12:35:43.512Z,21.03
2019-05-01T12:38:16.722Z,21.00
2019-05-01T12:40:50.412Z,21.04
2019-05-01T12:43:22.431Z,21.04
2019-05-01T12:45:55.973Z,21.08
2019-05-01T12:48:27.780Z,21.11
2019-05-01T12:50:59.436Z,21.23
2019-05-01T12:53:32.969Z,21.39
2019-05-01T12:56:10.243Z,21.44
2019-05-01T12:58:42.225Z,21.49
2019-05-01T13:01:14.522Z,21.58
2019-05-01T13:03:46.022Z,21.57
2019-05-01T13:06:17.650Z,21.51
2019-05-01T13:08:50.848Z,21.53
2019-05-01T13:11:22.320Z,21.72
2019-05-01T13:13:54.842Z,21.82
2019-05-01T13:16:26.327Z,21.61
2019-05-01T13:18:58.881Z,21.50
2019-05-01T13:21:30.356Z,21.40
2019-05-01T13:24:01.980Z,21.48
2019-05-01T13:26:48.448Z,21.58
2019-05-01T13:29:22.220Z,21.50
2019-05-01T13:31:56.072Z,21.47
2019-05-01T13:34:28.870Z,21.49
2019-05-01T13:37:03.190Z,21.44
2019-05-01T13:39:34.759Z,21.41
2019-05-01T13:42:09.609Z,21.23
2019-05-01T13:44:43.827Z,21.17
2019-05-01T13:47:17.149Z,21.16
2019-05-01T13:49:48.709Z,20.94
2019-05-01T13:52:20.815Z,20.71
2019-05-01T13:54:53.007Z,20.51
2019-05-01T13:57:27.035Z,20.30
2019-05-01T13:59:58.635Z,20.11
2019-05-01T14:02:33.077Z,20.07
2019-05-01T14:05:05.696Z,20.11
2019-05-01T14:07:40.292Z,20.18
2019-05-01T14:10:12.294Z,20.15
2019-05-01T14:12:45.404Z,20.08
2019-05-01T14:15:18.176Z,19.91
2019-05-01T14:17:51.022Z,19.81
2019-05-01T14:20:31.293Z,19.76
2019-05-01T14:23:19.624Z,19.72
2019-05-01T14:26:06.151Z,19.72
2019-05-01T14:28:37.769Z,19.74
2019-05-01T14:31:09.271Z,19.67
2019-05-01T14:33:41.755Z,19.68
2019-05-01T14:36:13.291Z,19.71
2019-05-01T14:38:46.066Z,19.84
2019-05-01T14:41:18.734Z,19.95
2019-05-01T14:43:52.053Z,20.02
2019-05-01T14:46:31.848Z,19.97
2019-05-01T14:49:06.051Z,19.87
2019-05-01T14:51:38.475Z,19.81
2019-05-01T14:54:12.052Z,19.81
2019-05-01T14:56:43.643Z,19.89
2019-05-01T14:59:15.297Z,19.89
2019-05-01T15:01:47.311Z,19.90
2019-05-01T15:04:20.136Z,19.89
2019-05-01T15:06:51.810Z,19.88
2019-05-01T15:09:25.413Z,19.89
2019-05-01T15:11:57.060Z,19.82
2019-05-01T15:14:33.014Z,19.75
2019-05-01T15:17:17.991Z,19.70
2019-05-01T15:19:52.024Z,19.63
2019-05-01T15:22:26.177Z,19.64
2019-05-01T15:24:57.661Z,19.73
2019-05-01T15:27:31.938Z,19.76
2019-05-01T15:30:08.459Z,19.59
2019-05-01T15:32:41.500Z,19.51
2019-05-01T15:35:15.237Z,19.54
2019-05-01T15:37:56.912Z,19.63
2019-05-01T15:40:52.571Z,19.63
2019-05-01T15:43:30.982Z,19.71
2019-05-01T15:46:02.695Z,19.70
2019-05-01T15:48:38.680Z,19.66
2019-05-01T15:51:10.526Z,19.62
2019-05-01T15:53:44.517Z,19.49
2019-05-01T15:56:23.355Z,19.37
2019-05-01T15:59:01.276Z,19.28
2019-05-01T16:01:36.459Z,19.21
2019-05-01T16:04:08.393Z,19.02
2019-05-01T16:06:40.824Z,18.97
2019-05-01T16:09:13.573Z,18.86
2019-05-01T16:12:04.812Z,18.75
2019-05-01T16:14:40.476Z,18.65
2019-05-01T16:17:14.926Z,18.51
2019-05-01T16:19:46.554Z,18.45
2019-05-01T16:22:20.170Z,18.37
2019-05-01T16:24:52.889Z,18.29
2019-05-01T16:27:24.818Z,18.19
2019-05-01T16:29:56.340Z,18.11
2019-05-01T16:32:27.941Z,17.98
2019-05-01T16:35:01.845Z,17.88
2019-05-01T16:37:33.959Z,17.76
2019-05-01T16:40:08.635Z,17.67
2019-05-01T16:42:41.804Z,17.58
2019-05-01T16:45:15.133Z,17.53
2019-05-01T16:47:48.050Z,17.49
2019-05-01T16:50:21.888Z,17.43
2019-05-01T16:52:53.764Z,17.35
2019-05-01T16:55:29.217Z,17.29
2019-05-01T16:58:01.692Z,17.20
2019-05-01T17:00:42.968Z,17.09
2019-05-01T17:03:20.207Z,17.02
2019-05-01T17:06:11.790Z,16.92
2019-05-01T17:08:59.576Z,16.82
2019-05-01T17:11:35.652Z,16.74
2019-05-01T17:14:09.309Z,16.72
2019-05-01T17:16:42.026Z,16.69
2019-05-01T17:19:13.487Z,16.68
2019-05-01T17:21:46.460Z,16.64
2019-05-01T17:24:18.177Z,16.57
2019-05-01T17:26:51.531Z,16.51
2019-05-01T17:29:28.425Z,16.49
2019-05-01T17:32:00.101Z,16.43
2019-05-01T17:34:32.422Z,16.42
2019-05-01T17:37:11.736Z,16.43
2019-05-01T17:39:43.966Z,16.40
2019-05-01T17:42:17.118Z,16.37
2019-05-01T17:44:51.107Z,16.35
2019-05-01T17:47:26.992Z,16.30
2019-05-01T17:49:59.943Z,16.24
2019-05-01T17:52:31.532Z,16.20
2019-05-01T17:55:03.816Z,16.15
2019-05-01T17:57:35.811Z,16.10
2019-05-01T18:00:24.657Z,16.04
2019-05-01T18:03:14.130Z,15.94
2019-05-01T18:06:11.034Z,15.84
2019-05-01T18:08:43.770Z,15.76
2019-05-01T18:11:15.823Z,15.70
2019-05-01T18:13:49.321Z,15.64
2019-05-01T18:16:21.017Z,15.56
2019-05-01T18:18:52.620Z,15.49
2019-05-01T18:21:27.457Z,15.42
2019-05-01T18:24:00.666Z,15.39
2019-05-01T18:26:51.435Z,15.33
2019-05-01T18:29:26.538Z,15.29
2019-05-01T18:32:08.305Z,15.23
2019-05-01T18:34:38.251Z,15.21
2019-05-01T18:37:14.934Z,15.18
2019-05-01T18:39:48.536Z,15.14
2019-05-01T18:42:23.126Z,15.09
2019-05-01T18:44:58.081Z,15.06
2019-05-01T18:47:30.732Z,15.00
2019-05-01T18:50:03.986Z,14.98
2019-05-01T18:52:36.397Z,14.92
2019-05-01T18:55:15.111Z,14.88
2019-05-01T18:57:50.709Z,14.84
2019-05-01T19:00:24.685Z,14.81
2019-05-01T19:02:59.674Z,14.76
2019-05-01T19:05:34.750Z,14.71
2019-05-01T19:08:09.957Z,14.68
2019-05-01T19:10:44.621Z,14.65
2019-05-01T19:13:25.889Z,14.62
2019-05-01T19:15:58.328Z,14.60
2019-05-01T19:18:30.027Z,14.58
2019-05-01T19:21:06.099Z,14.56
2019-05-01T19:23:38.624Z,14.53
2019-05-01T19:26:16.530Z,14.50
2019-05-01T19:28:51.734Z,14.48
2019-05-01T19:31:23.771Z,14.43
2019-05-01T19:33:56.906Z,14.41
2019-05-01T19:36:32.622Z,14.38
2019-05-01T19:39:11.048Z,14.36
2019-05-01T19:41:43.581Z,14.30
2019-05-01T19:44:18.794Z,14.24
2019-05-01T19:46:55.454Z,14.16
2019-05-01T19:49:29.760Z,14.13
2019-05-01T19:52:04.279Z,14.09
2019-05-01T19:54:35.872Z,14.04
2019-05-01T19:57:07.428Z,14.00
2019-05-01T19:59:41.667Z,13.98
2019-05-01T20:02:17.326Z,13.96
2019-05-01T20:04:52.078Z,13.95
2019-05-01T20:07:25.242Z,13.94
2019-05-01T20:09:58.334Z,13.94
2019-05-01T20:12:31.360Z,13.92
2019-05-01T20:15:05.142Z,13.92
2019-05-01T20:17:37.232Z,13.91
2019-05-01T20:20:13.033Z,13.90
2019-05-01T20:22:48.248Z,13.90
2019-05-01T20:25:19.366Z,13.89
2019-05-01T20:27:53.338Z,13.88
2019-05-01T20:30:27.576Z,13.87
2019-05-01T20:33:11.008Z,13.86
2019-05-01T20:35:42.487Z,13.84
2019-05-01T20:38:16.414Z,13.83
2019-05-01T20:40:49.508Z,13.82
2019-05-01T20:43:20.966Z,13.80
2019-05-01T20:45:53.234Z,13.78
2019-05-01T20:48:25.247Z,13.76
2019-05-01T20:50:57.078Z,13.75
2019-05-01T20:53:29.128Z,13.72
2019-05-01T20:56:02.274Z,13.70
2019-05-01T20:58:33.831Z,13.64
2019-05-01T21:01:06.914Z,13.59
2019-05-01T21:03:40.149Z,13.51
2019-05-01T21:06:14.756Z,13.45
2019-05-01T21:08:47.891Z,13.39
2019-05-01T21:11:24.049Z,13.33
2019-05-01T21:14:15.216Z,13.26
2019-05-01T21:16:32.982Z,13.21
2019-05-01T21:19:06.511Z,13.19
2019-05-01T21:21:38.084Z,13.19
2019-05-01T21:24:09.677Z,13.19
2019-05-01T21:26:43.372Z,13.21
2019-05-01T21:29:15.148Z,13.23
2019-05-01T21:31:46.847Z,13.23
2019-05-01T21:34:18.394Z,13.23
2019-05-01T21:36:52.726Z,13.21
2019-05-01T21:39:26.333Z,13.20
2019-05-01T21:41:56.615Z,13.18
2019-05-01T21:44:30.626Z,13.16
2019-05-01T21:47:03.929Z,13.13
2019-05-01T21:49:35.405Z,13.10
2019-05-01T21:52:07.474Z,13.08
2019-05-01T21:54:39.407Z,13.04
2019-05-01T21:57:12.055Z,13.03
2019-05-01T21:59:47.973Z,13.00
2019-05-01T22:02:18.437Z,12.98
2019-05-01T22:04:50.008Z,12.95
2019-05-01T22:07:23.773Z,12.91
2019-05-01T22:09:57.167Z,12.89
2019-05-01T22:12:29.421Z,12.87
2019-05-01T22:15:06.101Z,12.78
2019-05-01T22:17:39.458Z,12.81
2019-05-01T22:20:13.831Z,12.76
2019-05-01T22:22:52.955Z,12.75
2019-05-01T22:25:27.597Z,12.74
2019-05-01T22:28:13.935Z,12.73
2019-05-01T22:30:46.200Z,12.72
2019-05-01T22:33:18.485Z,12.69
2019-05-01T22:35:52.544Z,12.68
2019-05-01T22:38:24.716Z,12.69
2019-05-01T22:41:06.181Z,12.65
2019-05-01T22:43:31.727Z,12.60
2019-05-01T22:46:04.551Z,12.55
2019-05-01T22:48:36.145Z,12.52
2019-05-01T22:51:09.292Z,12.48
2019-05-01T22:53:41.029Z,12.46
2019-05-01T22:56:12.570Z,12.44
2019-05-01T22:58:44.582Z,12.47
2019-05-01T23:01:18.198Z,12.45
2019-05-01T23:03:51.871Z,12.52
2019-05-01T23:06:24.821Z,12.56
2019-05-01T23:08:56.371Z,12.56
2019-05-01T23:11:31.137Z,12.59
2019-05-01T23:14:02.662Z,12.60
2019-05-01T23:16:35.925Z,12.59
2019-05-01T23:19:07.413Z,12.59
2019-05-01T23:21:41.025Z,12.58
2019-05-01T23:24:12.692Z,12.57
2019-05-01T23:26:48.046Z,12.55
2019-05-01T23:29:17.519Z,12.51
2019-05-01T23:31:49.094Z,12.45
2019-05-01T23:34:21.086Z,12.47
2019-05-01T23:36:54.063Z,12.42
2019-05-01T23:39:25.679Z,12.36
2019-05-01T23:41:57.311Z,12.31
2019-05-01T23:44:28.849Z,12.26
2019-05-01T23:47:00.442Z,12.24
2019-05-01T23:49:32.044Z,12.22
2019-05-01T23:52:05.126Z,12.20
2019-05-01T23:54:36.806Z,12.18
2019-05-01T23:57:08.407Z,12.16
2019-05-01T23:59:39.996Z,12.15
